createdAt,value
2022-10-23T00:01:51.806Z,8.55
2022-10-23T00:04:25.322Z,8.88
2022-10-23T00:06:55.276Z,7.97
2022-10-23T00:09:26.238Z,7.55
2022-10-23T00:11:54.781Z,7.10
2022-10-23T00:14:26.204Z,4.10
2022-10-23T00:16:54.823Z,4.38
2022-10-23T00:19:23.369Z,6.25
2022-10-23T00:21:51.994Z,7.10
2022-10-23T00:24:21.878Z,7.03
2022-10-23T00:26:51.801Z,7.40
2022-10-23T00:29:20.415Z,7.07
2022-10-23T00:31:49.036Z,8.70
2022-10-23T00:34:17.616Z,7.50
2022-10-23T00:36:46.189Z,6.50
2022-10-23T00:39:14.749Z,8.32
2022-10-23T00:41:44.645Z,8.07
2022-10-23T00:45:10.643Z,7.68
2022-10-23T00:47:39.796Z,8.10
2022-10-23T00:50:09.574Z,8.15
2022-10-23T00:52:47.663Z,8.00
2022-10-23T00:55:17.386Z,8.48
2022-10-23T00:57:50.381Z,8.18
2022-10-23T01:00:26.903Z,7.63
2022-10-23T01:02:58.675Z,7.57
2022-10-23T01:05:37.501Z,9.00
2022-10-23T01:08:13.360Z,7.80
2022-10-23T01:10:48.961Z,7.40
2022-10-23T01:13:28.755Z,8.38
2022-10-23T01:16:07.306Z,7.90
2022-10-23T01:18:45.689Z,8.00
2022-10-23T01:21:23.217Z,8.45
2022-10-23T01:24:11.322Z,7.88
2022-10-23T01:27:03.678Z,7.97
2022-10-23T01:29:40.677Z,8.75
2022-10-23T01:32:16.220Z,8.95
2022-10-23T01:34:51.432Z,8.27
2022-10-23T01:37:28.642Z,8.23
2022-10-23T01:40:03.729Z,8.25
2022-10-23T01:42:39.897Z,8.02
2022-10-23T01:45:18.596Z,7.82
2022-10-23T01:47:49.000Z,8.43
2022-10-23T01:50:20.911Z,6.22
2022-10-23T01:52:49.584Z,6.47
2022-10-23T01:55:18.860Z,7.35
2022-10-23T01:57:50.944Z,6.22
2022-10-23T02:00:22.922Z,7.82
2022-10-23T02:02:53.854Z,7.85
2022-10-23T02:05:27.561Z,6.45
2022-10-23T02:07:57.062Z,6.03
2022-10-23T02:10:35.918Z,7.03
2022-10-23T02:13:12.290Z,7.18
2022-10-23T02:15:50.034Z,6.35
2022-10-23T02:18:36.302Z,7.00
2022-10-23T02:21:12.086Z,6.65
2022-10-23T02:23:52.541Z,6.65
2022-10-23T02:26:29.860Z,6.40
2022-10-23T02:29:08.565Z,6.22
2022-10-23T02:31:38.768Z,6.63
2022-10-23T02:34:07.576Z,6.80
2022-10-23T02:36:36.409Z,7.65
2022-10-23T02:39:05.469Z,8.52
2022-10-23T02:41:43.545Z,9.35
2022-10-23T02:44:41.928Z,8.27
2022-10-23T02:47:27.348Z,8.90
2022-10-23T02:50:08.213Z,9.52
2022-10-23T02:52:47.250Z,10.02
2022-10-23T02:55:33.020Z,10.95
2022-10-23T02:58:10.595Z,9.38
2022-10-23T03:00:46.572Z,9.65
2022-10-23T03:03:22.835Z,9.25
2022-10-23T03:05:52.151Z,7.88
2022-10-23T03:08:20.741Z,8.02
2022-10-23T03:10:49.441Z,7.50
2022-10-23T03:13:18.591Z,8.07
2022-10-23T03:15:47.146Z,8.75
2022-10-23T03:18:17.157Z,9.88
2022-10-23T03:20:45.766Z,9.35
2022-10-23T03:23:15.153Z,9.85
2022-10-23T03:25:43.685Z,9.25
2022-10-23T03:28:12.796Z,6.22
2022-10-23T03:30:41.353Z,6.47
2022-10-23T03:33:09.925Z,8.23
2022-10-23T03:35:39.945Z,9.55
2022-10-23T03:38:08.648Z,12.40
2022-10-23T03:40:37.217Z,14.48
2022-10-23T03:43:05.901Z,14.10
2022-10-23T03:45:34.433Z,14.70
2022-10-23T03:48:03.030Z,13.18
2022-10-23T03:50:31.656Z,14.30
2022-10-23T03:53:01.594Z,15.25
2022-10-23T03:55:30.622Z,15.98
2022-10-23T03:57:59.243Z,16.20
2022-10-23T04:00:27.793Z,16.65
2022-10-23T04:02:56.361Z,16.58
2022-10-23T04:05:25.053Z,16.73
2022-10-23T04:07:53.627Z,16.23
2022-10-23T04:10:23.678Z,16.05
2022-10-23T04:12:52.340Z,15.27
2022-10-23T04:15:20.893Z,14.63
2022-10-23T04:17:49.387Z,13.27
2022-10-23T04:20:18.609Z,13.82
2022-10-23T04:22:47.149Z,14.20
2022-10-23T04:25:16.656Z,13.65
2022-10-23T04:27:46.683Z,14.23
2022-10-23T04:30:15.558Z,14.05
2022-10-23T04:32:44.089Z,13.45
2022-10-23T04:35:12.786Z,12.40
2022-10-23T04:37:41.610Z,10.77
2022-10-23T04:40:11.725Z,10.10
2022-10-23T04:42:40.507Z,10.57
2022-10-23T04:45:12.120Z,11.00
2022-10-23T04:47:40.675Z,12.48
2022-10-23T04:50:09.560Z,12.70
2022-10-23T04:52:38.071Z,13.48
2022-10-23T04:55:09.956Z,14.18
2022-10-23T04:57:38.559Z,13.85
2022-10-23T05:00:13.955Z,15.13
2022-10-23T05:02:42.724Z,15.20
2022-10-23T05:05:12.068Z,17.35
2022-10-23T05:07:40.857Z,17.52
2022-10-23T05:10:10.768Z,17.63
2022-10-23T05:12:39.341Z,17.63
2022-10-23T05:15:10.720Z,19.50
2022-10-23T05:17:45.228Z,19.20
2022-10-23T05:20:22.551Z,19.85
2022-10-23T05:22:55.568Z,21.13
2022-10-23T05:25:24.213Z,20.35
2022-10-23T05:27:53.567Z,19.55
2022-10-23T05:30:23.531Z,20.98
2022-10-23T05:32:52.170Z,22.50
2022-10-23T05:35:24.578Z,22.02
2022-10-23T05:37:56.650Z,25.10
2022-10-23T05:40:25.769Z,30.75
2022-10-23T05:42:54.691Z,32.90
2022-10-23T05:45:24.725Z,22.27
2022-10-23T05:47:53.924Z,23.52
2022-10-23T05:50:23.754Z,24.52
2022-10-23T05:52:52.448Z,24.27
2022-10-23T05:55:21.176Z,29.40
2022-10-23T05:57:49.744Z,24.90
2022-10-23T06:00:18.697Z,25.63
2022-10-23T06:02:48.612Z,28.23
2022-10-23T06:05:17.377Z,28.45
2022-10-23T06:07:46.211Z,30.45
2022-10-23T06:10:15.070Z,28.00
2022-10-23T06:12:43.611Z,26.20
2022-10-23T06:15:12.708Z,26.77
2022-10-23T06:17:41.587Z,26.48
2022-10-23T06:20:12.822Z,26.67
2022-10-23T06:22:41.477Z,27.15
2022-10-23T06:25:11.057Z,28.50
2022-10-23T06:27:39.657Z,28.75
2022-10-23T06:30:10.307Z,26.95
2022-10-23T06:32:38.907Z,26.67
2022-10-23T06:35:08.996Z,27.70
2022-10-23T06:37:38.924Z,28.85
2022-10-23T06:40:09.542Z,28.45
2022-10-23T06:42:38.198Z,26.85
2022-10-23T06:45:08.265Z,26.38
2022-10-23T06:47:36.812Z,27.42
2022-10-23T06:50:07.904Z,27.48
2022-10-23T06:52:46.900Z,26.08
2022-10-23T06:55:16.844Z,28.48
2022-10-23T06:57:46.017Z,27.65
2022-10-23T07:00:15.798Z,29.25
2022-10-23T07:02:44.718Z,29.85
2022-10-23T07:05:13.938Z,31.13
2022-10-23T07:07:44.062Z,30.13
2022-10-23T07:12:42.478Z,32.92
2022-10-23T07:15:11.891Z,32.78
2022-10-23T07:17:40.527Z,33.53
2022-10-23T07:20:09.941Z,34.88
2022-10-23T07:22:38.755Z,30.58
2022-10-23T07:25:09.600Z,31.90
2022-10-23T07:27:39.581Z,29.92
2022-10-23T07:30:09.828Z,28.15
2022-10-23T07:32:38.371Z,27.38
2022-10-23T07:35:09.385Z,29.08
2022-10-23T07:37:38.199Z,28.90
2022-10-23T07:40:10.046Z,28.83
2022-10-23T07:42:38.935Z,27.13
2022-10-23T07:45:09.384Z,27.30
2022-10-23T07:47:37.913Z,27.65
2022-10-23T07:50:07.616Z,27.52
2022-10-23T07:52:36.903Z,28.30
2022-10-23T07:55:06.421Z,25.75
2022-10-23T07:57:36.411Z,27.38
2022-10-23T08:00:06.259Z,25.75
2022-10-23T08:02:35.037Z,25.85
2022-10-23T08:05:03.617Z,25.75
2022-10-23T08:07:32.212Z,24.63
2022-10-23T08:10:00.696Z,24.58
2022-10-23T08:12:29.278Z,25.33
2022-10-23T08:14:59.280Z,27.08
2022-10-23T08:17:28.355Z,25.05
2022-10-23T08:19:57.000Z,26.75
2022-10-23T08:22:25.656Z,25.75
2022-10-23T08:24:54.209Z,25.13
2022-10-23T08:27:22.807Z,24.88
2022-10-23T08:29:51.329Z,24.80
2022-10-23T08:32:21.702Z,25.10
2022-10-23T08:34:50.249Z,24.02
2022-10-23T08:37:18.909Z,23.55
2022-10-23T08:39:50.130Z,24.02
2022-10-23T08:42:24.897Z,25.02
2022-10-23T08:45:03.527Z,25.70
2022-10-23T08:47:42.295Z,26.25
2022-10-23T08:50:25.424Z,25.95
2022-10-23T08:53:03.648Z,23.33
2022-10-23T08:55:38.722Z,22.77
2022-10-23T08:58:15.566Z,23.48
2022-10-23T09:00:45.833Z,22.80
2022-10-23T09:03:15.970Z,20.73
2022-10-23T09:06:03.540Z,22.30
2022-10-23T09:08:52.292Z,22.95
2022-10-23T09:11:34.028Z,23.17
2022-10-23T09:14:36.185Z,24.15
2022-10-23T09:17:21.349Z,27.35
2022-10-23T09:20:00.378Z,24.30
2022-10-23T09:22:30.379Z,25.00
2022-10-23T09:24:58.983Z,26.05
2022-10-23T09:27:27.502Z,25.50
2022-10-23T09:29:59.462Z,25.95
2022-10-23T09:32:37.598Z,25.10
2022-10-23T09:35:22.590Z,28.13
2022-10-23T09:37:53.362Z,26.33
2022-10-23T09:40:34.125Z,25.00
2022-10-23T09:43:17.684Z,31.38
2022-10-23T09:45:58.468Z,26.27
2022-10-23T09:48:27.484Z,27.08
2022-10-23T09:51:00.706Z,27.45
2022-10-23T09:53:38.204Z,25.40
2022-10-23T09:56:24.673Z,26.65
2022-10-23T09:58:57.585Z,27.13
2022-10-23T10:01:29.419Z,24.65
2022-10-23T10:03:58.227Z,25.90
2022-10-23T10:06:31.616Z,25.40
2022-10-23T10:09:03.409Z,24.58
2022-10-23T10:11:42.751Z,25.10
2022-10-23T10:14:49.813Z,25.33
2022-10-23T10:17:31.608Z,24.92
2022-10-23T10:20:20.747Z,26.13
2022-10-23T10:22:59.580Z,25.08
2022-10-23T10:25:37.424Z,25.85
2022-10-23T10:28:35.670Z,24.50
2022-10-23T10:31:18.014Z,34.88
2022-10-23T10:33:59.986Z,26.60
2022-10-23T10:36:50.720Z,24.65
2022-10-23T10:39:44.248Z,24.20
2022-10-23T10:42:31.884Z,26.25
2022-10-23T10:45:32.293Z,24.38
2022-10-23T10:48:24.779Z,24.30
2022-10-23T10:51:01.834Z,24.75
2022-10-23T10:53:48.877Z,23.80
2022-10-23T10:56:23.129Z,24.85
2022-10-23T10:58:57.727Z,24.10
2022-10-23T11:01:31.950Z,22.75
2022-10-23T11:04:08.074Z,23.17
2022-10-23T11:06:39.536Z,23.65
2022-10-23T11:09:21.325Z,24.38
2022-10-23T11:11:51.588Z,24.20
2022-10-23T11:14:23.738Z,24.55
2022-10-23T11:16:57.804Z,23.85
2022-10-23T11:19:32.232Z,24.02
2022-10-23T11:22:12.364Z,25.48
2022-10-23T11:25:28.843Z,23.83
2022-10-23T11:28:23.823Z,22.98
2022-10-23T11:31:12.213Z,21.02
2022-10-23T11:34:40.434Z,19.73
2022-10-23T11:37:09.215Z,20.90
2022-10-23T11:39:40.884Z,21.40
2022-10-23T11:42:30.044Z,19.42
2022-10-23T11:45:00.122Z,19.45
2022-10-23T11:47:39.523Z,20.45
2022-10-23T11:50:30.115Z,19.08
2022-10-23T11:53:21.150Z,19.00
2022-10-23T11:56:02.650Z,21.45
2022-10-23T11:58:44.814Z,20.33
2022-10-23T12:01:38.362Z,21.88
2022-10-23T12:04:23.605Z,22.00
2022-10-23T12:06:56.294Z,21.70
2022-10-23T12:09:33.159Z,21.13
2022-10-23T12:12:29.447Z,21.65
2022-10-23T12:15:20.040Z,21.27
2022-10-23T12:17:51.767Z,21.55
2022-10-23T12:20:46.308Z,21.45
2022-10-23T12:23:34.866Z,23.63
2022-10-23T12:26:40.902Z,23.08
2022-10-23T12:29:26.011Z,24.55
2022-10-23T12:32:05.875Z,22.17
2022-10-23T12:34:49.057Z,21.92
2022-10-23T12:37:57.883Z,21.10
2022-10-23T12:40:29.915Z,21.08
2022-10-23T12:43:01.351Z,19.52
2022-10-23T12:45:34.168Z,25.60
2022-10-23T12:48:02.851Z,47.50
2022-10-23T12:50:36.114Z,23.35
2022-10-23T12:53:08.769Z,21.73
2022-10-23T12:55:51.188Z,21.10
2022-10-23T12:58:25.501Z,20.67
2022-10-23T13:00:57.305Z,19.17
2022-10-23T13:03:28.887Z,19.88
2022-10-23T13:06:02.780Z,18.40
2022-10-23T13:08:38.013Z,19.70
2022-10-23T13:11:09.749Z,19.63
2022-10-23T13:13:38.379Z,18.73
2022-10-23T13:16:16.549Z,17.88
2022-10-23T13:18:45.150Z,19.75
2022-10-23T13:21:23.485Z,19.77
2022-10-23T13:23:53.850Z,18.23
2022-10-23T13:26:33.950Z,19.83
2022-10-23T13:29:07.319Z,20.67
2022-10-23T13:31:38.515Z,20.08
2022-10-23T13:34:19.334Z,21.75
2022-10-23T13:37:05.647Z,22.33
2022-10-23T13:39:35.543Z,21.38
2022-10-23T13:42:14.826Z,21.15
2022-10-23T13:44:44.395Z,20.55
2022-10-23T13:47:15.572Z,20.10
2022-10-23T13:49:44.102Z,22.95
2022-10-23T13:52:20.157Z,23.88
2022-10-23T13:54:49.999Z,25.67
2022-10-23T13:57:18.813Z,28.40
2022-10-23T13:59:47.469Z,26.92
2022-10-23T14:02:22.555Z,26.60
2022-10-23T14:04:53.322Z,25.75
2022-10-23T14:07:23.254Z,25.35
2022-10-23T14:09:51.829Z,26.40
2022-10-23T14:12:20.388Z,34.88
2022-10-23T14:14:52.865Z,27.90
2022-10-23T14:17:22.345Z,27.80
2022-10-23T14:19:51.331Z,27.33
2022-10-23T14:22:20.144Z,26.63
2022-10-23T14:24:50.318Z,25.38
2022-10-23T14:27:18.918Z,25.80
2022-10-23T14:29:47.480Z,24.60
2022-10-23T14:32:16.001Z,22.63
2022-10-23T14:34:46.217Z,23.33
2022-10-23T14:37:14.755Z,22.17
2022-10-23T14:39:48.904Z,22.27
2022-10-23T14:42:19.968Z,22.40
2022-10-23T14:44:50.023Z,20.92
2022-10-23T14:47:19.907Z,20.65
2022-10-23T14:49:53.616Z,22.17
2022-10-23T14:52:22.299Z,20.00
2022-10-23T14:54:54.052Z,20.85
2022-10-23T14:57:24.106Z,19.50
2022-10-23T14:59:52.660Z,20.77
2022-10-23T15:02:21.270Z,20.45
2022-10-23T15:04:49.831Z,20.48
2022-10-23T15:07:18.413Z,20.55
2022-10-23T15:09:46.990Z,21.05
2022-10-23T15:12:15.588Z,20.38
2022-10-23T15:14:45.862Z,19.80
2022-10-23T15:17:15.619Z,19.45
2022-10-23T15:19:44.659Z,18.85
2022-10-23T15:22:13.447Z,20.13
2022-10-23T15:24:42.081Z,21.10
2022-10-23T15:27:10.699Z,20.55
2022-10-23T15:29:39.475Z,20.13
2022-10-23T15:32:12.453Z,20.30
2022-10-23T15:34:42.933Z,21.25
2022-10-23T15:37:12.496Z,20.33
2022-10-23T15:39:41.434Z,20.88
2022-10-23T15:42:11.530Z,20.98
2022-10-23T15:44:42.359Z,20.52
2022-10-23T15:47:12.811Z,21.63
2022-10-23T15:49:41.620Z,22.13
2022-10-23T15:52:11.487Z,20.90
2022-10-23T15:54:40.189Z,24.77
2022-10-23T15:57:08.851Z,27.48
2022-10-23T15:59:37.680Z,25.83
2022-10-23T16:02:06.668Z,22.90
2022-10-23T16:04:36.993Z,23.70
2022-10-23T16:07:05.595Z,22.98
2022-10-23T16:09:34.140Z,21.98
2022-10-23T16:12:02.797Z,22.88
2022-10-23T16:14:31.432Z,23.50
2022-10-23T16:17:00.027Z,21.38
2022-10-23T16:19:28.678Z,22.08
2022-10-23T16:21:59.080Z,26.00
2022-10-23T16:24:28.039Z,22.83
2022-10-23T16:26:58.214Z,23.17
2022-10-23T16:29:29.549Z,26.60
2022-10-23T16:31:59.921Z,26.70
2022-10-23T16:34:28.790Z,26.05
2022-10-23T16:36:58.703Z,27.45
2022-10-23T16:39:27.315Z,24.88
2022-10-23T16:41:55.886Z,25.25
2022-10-23T16:44:24.543Z,26.00
2022-10-23T16:46:53.189Z,25.38
2022-10-23T16:49:21.795Z,23.65
2022-10-23T16:51:50.436Z,23.98
2022-10-23T16:54:20.408Z,26.15
2022-10-23T16:56:49.134Z,25.75
2022-10-23T16:59:17.801Z,25.08
2022-10-23T17:01:46.536Z,26.90
2022-10-23T17:04:15.320Z,22.63
2022-10-23T17:06:44.048Z,24.23
2022-10-23T17:09:12.898Z,25.23
2022-10-23T17:11:45.679Z,24.25
2022-10-23T17:14:19.787Z,25.70
2022-10-23T17:16:51.303Z,25.38
2022-10-23T17:19:43.707Z,26.13
2022-10-23T17:22:13.472Z,25.10
2022-10-23T17:24:46.286Z,25.33
2022-10-23T17:27:19.331Z,25.02
2022-10-23T17:29:48.027Z,24.83
2022-10-23T17:32:16.770Z,25.90
2022-10-23T17:34:46.646Z,25.40
2022-10-23T17:37:15.305Z,24.63
2022-10-23T17:39:44.299Z,24.00
2022-10-23T17:42:12.865Z,24.83
2022-10-23T17:44:43.051Z,22.02
2022-10-23T17:47:11.992Z,22.08
2022-10-23T17:49:42.872Z,21.48
2022-10-23T17:52:15.108Z,22.77
2022-10-23T17:54:43.944Z,21.25
2022-10-23T17:57:12.683Z,20.45
2022-10-23T17:59:42.665Z,18.75
2022-10-23T18:02:14.337Z,21.08
2022-10-23T18:04:43.070Z,20.13
2022-10-23T18:07:11.714Z,20.27
2022-10-23T18:09:40.420Z,20.05
2022-10-23T18:12:09.112Z,19.42
2022-10-23T18:14:38.904Z,21.15
2022-10-23T18:17:08.894Z,22.05
2022-10-23T18:19:38.007Z,20.17
2022-10-23T18:22:06.659Z,22.30
2022-10-23T18:24:36.085Z,21.55
2022-10-23T18:27:04.810Z,21.58
2022-10-23T18:29:33.433Z,21.67
2022-10-23T18:32:02.173Z,18.20
2022-10-23T18:34:32.162Z,18.00
2022-10-23T18:37:01.047Z,19.55
2022-10-23T18:39:29.688Z,21.63
2022-10-23T18:41:59.974Z,45.92
2022-10-23T18:44:30.064Z,33.63
2022-10-23T18:47:00.563Z,18.90
2022-10-23T18:49:31.702Z,17.98
2022-10-23T18:52:00.277Z,17.95
2022-10-23T18:54:29.139Z,18.92
2022-10-23T18:56:58.153Z,19.40
2022-10-23T18:59:26.779Z,18.48
2022-10-23T19:01:55.519Z,19.80
2022-10-23T19:04:24.277Z,18.80
2022-10-23T19:06:54.284Z,20.20
2022-10-23T19:09:23.016Z,19.52
2022-10-23T19:11:51.624Z,18.83
2022-10-23T19:14:20.369Z,20.05
2022-10-23T19:17:00.473Z,19.27
2022-10-23T19:19:35.095Z,29.00
2022-10-23T19:22:06.171Z,46.33
2022-10-23T19:24:40.816Z,44.78
2022-10-23T19:27:10.679Z,46.42
2022-10-23T19:29:44.511Z,52.83
2022-10-23T19:32:13.538Z,27.10
2022-10-23T19:34:42.312Z,19.05
2022-10-23T19:37:15.343Z,21.63
2022-10-23T19:39:43.929Z,21.15
2022-10-23T19:42:13.232Z,19.90
2022-10-23T19:44:41.858Z,19.00
2022-10-23T19:47:10.588Z,19.38
2022-10-23T19:49:39.419Z,20.58
2022-10-23T19:52:08.108Z,20.33
2022-10-23T19:54:40.347Z,20.67
2022-10-23T19:57:09.044Z,20.60
2022-10-23T19:59:37.603Z,21.83
2022-10-23T20:02:06.417Z,21.15
2022-10-23T20:04:36.044Z,22.88
2022-10-23T20:07:04.649Z,20.67
2022-10-23T20:09:34.172Z,21.75
2022-10-23T20:12:04.877Z,22.42
2022-10-23T20:14:33.777Z,21.88
2022-10-23T20:17:02.713Z,23.08
2022-10-23T20:19:32.147Z,22.33
2022-10-23T20:22:00.877Z,23.15
2022-10-23T20:24:29.527Z,21.70
2022-10-23T20:26:58.506Z,22.05
2022-10-23T20:29:28.498Z,22.20
2022-10-23T20:31:57.112Z,22.73
2022-10-23T20:34:25.617Z,23.50
2022-10-23T20:36:54.677Z,23.85
2022-10-23T20:39:25.708Z,22.85
2022-10-23T20:41:55.708Z,23.08
2022-10-23T20:44:24.534Z,24.27
2022-10-23T20:46:55.128Z,24.10
2022-10-23T20:49:29.860Z,24.33
2022-10-23T20:51:58.674Z,24.52
2022-10-23T20:54:28.877Z,25.77
2022-10-23T20:56:58.884Z,25.92
2022-10-23T20:59:27.460Z,24.77
2022-10-23T21:01:57.818Z,24.90
2022-10-23T21:04:29.349Z,26.33
2022-10-23T21:07:16.414Z,26.15
2022-10-23T21:09:45.160Z,26.95
2022-10-23T21:12:13.927Z,26.63
2022-10-23T21:14:42.594Z,26.67
2022-10-23T21:17:16.896Z,27.15
2022-10-23T21:19:45.715Z,26.25
2022-10-23T21:22:14.256Z,26.15
2022-10-23T21:24:42.881Z,26.02
2022-10-23T21:27:11.475Z,25.92
2022-10-23T21:29:40.031Z,26.15
2022-10-23T21:32:08.575Z,25.95
2022-10-23T21:34:38.522Z,26.42
2022-10-23T21:37:14.968Z,27.52
2022-10-23T21:39:45.347Z,25.20
2022-10-23T21:42:15.514Z,25.48
2022-10-23T21:44:44.377Z,25.60
2022-10-23T21:47:14.482Z,26.27
2022-10-23T21:49:44.673Z,25.70
2022-10-23T21:52:15.063Z,25.58
2022-10-23T21:54:46.242Z,25.30
2022-10-23T21:57:15.529Z,24.27
2022-10-23T21:59:44.092Z,27.38
2022-10-23T22:02:12.767Z,24.85
2022-10-23T22:04:43.188Z,25.02
2022-10-23T22:07:14.946Z,23.95
2022-10-23T22:09:44.806Z,24.27
2022-10-23T22:12:13.758Z,24.10
2022-10-23T22:14:42.598Z,24.63
2022-10-23T22:17:11.213Z,23.67
2022-10-23T22:19:39.804Z,22.27
2022-10-23T22:22:09.876Z,24.15
2022-10-23T22:24:38.903Z,22.00
2022-10-23T22:27:07.484Z,22.30
2022-10-23T22:29:36.059Z,23.48
2022-10-23T22:32:04.712Z,22.88
2022-10-23T22:34:52.030Z,23.25
2022-10-23T22:37:22.774Z,23.75
2022-10-23T22:39:52.960Z,36.10
2022-10-23T22:42:21.807Z,34.33
2022-10-23T22:44:50.386Z,67.15
2022-10-23T22:47:18.938Z,27.50
2022-10-23T22:49:48.003Z,21.95
2022-10-23T22:52:16.532Z,22.25
2022-10-23T22:54:46.581Z,22.60
2022-10-23T22:57:15.332Z,21.92
2022-10-23T22:59:43.923Z,22.55
2022-10-23T23:02:12.452Z,21.98
2022-10-23T23:04:41.295Z,22.27
2022-10-23T23:07:12.367Z,21.75
2022-10-23T23:09:44.842Z,23.05
2022-10-23T23:12:15.737Z,21.17
2022-10-23T23:14:44.782Z,21.45
2022-10-23T23:17:13.981Z,23.02
2022-10-23T23:19:42.516Z,21.55
2022-10-23T23:22:11.337Z,22.20
2022-10-23T23:24:40.060Z,21.90
2022-10-23T23:27:08.671Z,21.13
2022-10-23T23:29:38.707Z,20.98
2022-10-23T23:32:07.492Z,21.13
2022-10-23T23:34:36.023Z,20.88
2022-10-23T23:37:04.520Z,20.75
2022-10-23T23:39:33.286Z,20.98
2022-10-23T23:42:01.986Z,21.60
2022-10-23T23:44:30.684Z,20.67
2022-10-23T23:47:00.693Z,21.20
2022-10-23T23:49:29.216Z,20.95
2022-10-23T23:51:57.760Z,20.65
2022-10-23T23:54:26.307Z,19.95
2022-10-23T23:56:59.125Z,21.45
2022-10-23T23:59:27.800Z,19.85
